sensor_id;sensor_type;location;lat;lon;timestamp;P1;durP1;ratioP1;P2;durP2;ratioP2
11171;SDS011;5642;50.830;12.082;2024-02-21T00:00:01;1.45;;;1.30;;
11171;SDS011;5642;50.830;12.082;2024-02-21T00:02:28;1.33;;;1.23;;
11171;SDS011;5642;50.830;12.082;2024-02-21T00:04:55;1.27;;;1.10;;
11171;SDS011;5642;50.830;12.082;2024-02-21T00:07:22;1.50;;;1.10;;
11171;SDS011;5642;50.830;12.082;2024-02-21T00:09:48;2.00;;;1.15;;
11171;SDS011;5642;50.830;12.082;2024-02-21T00:12:16;2.63;;;1.30;;
11171;SDS011;5642;50.830;12.082;2024-02-21T00:14:42;2.08;;;1.40;;
11171;SDS011;5642;50.830;12.082;2024-02-21T00:17:10;1.20;;;1.00;;
11171;SDS011;5642;50.830;12.082;2024-02-21T00:19:36;2.45;;;1.30;;
11171;SDS011;5642;50.830;12.082;2024-02-21T00:22:02;1.90;;;1.20;;
11171;SDS011;5642;50.830;12.082;2024-02-21T00:24:29;2.95;;;1.20;;
11171;SDS011;5642;50.830;12.082;2024-02-21T00:26:55;1.80;;;1.30;;
11171;SDS011;5642;50.830;12.082;2024-02-21T00:29:21;3.13;;;1.30;;
11171;SDS011;5642;50.830;12.082;2024-02-21T00:31:48;1.88;;;1.30;;
11171;SDS011;5642;50.830;12.082;2024-02-21T00:34:14;2.03;;;1.30;;
11171;SDS011;5642;50.830;12.082;2024-02-21T00:36:40;1.70;;;1.30;;
11171;SDS011;5642;50.830;12.082;2024-02-21T00:39:07;2.47;;;1.10;;
11171;SDS011;5642;50.830;12.082;2024-02-21T00:41:34;2.63;;;1.20;;
11171;SDS011;5642;50.830;12.082;2024-02-21T00:44:01;3.30;;;1.40;;
11171;SDS011;5642;50.830;12.082;2024-02-21T00:46:27;1.42;;;1.10;;
11171;SDS011;5642;50.830;12.082;2024-02-21T00:48:53;2.30;;;1.13;;
11171;SDS011;5642;50.830;12.082;2024-02-21T00:51:19;1.63;;;1.27;;
11171;SDS011;5642;50.830;12.082;2024-02-21T00:53:46;1.40;;;1.20;;
11171;SDS011;5642;50.830;12.082;2024-02-21T00:56:13;1.10;;;1.00;;
11171;SDS011;5642;50.830;12.082;2024-02-21T00:58:39;2.08;;;1.10;;
11171;SDS011;5642;50.830;12.082;2024-02-21T01:01:05;1.95;;;0.88;;
11171;SDS011;5642;50.830;12.082;2024-02-21T01:03:35;2.92;;;1.20;;
11171;SDS011;5642;50.830;12.082;2024-02-21T01:06:05;2.58;;;1.15;;
11171;SDS011;5642;50.830;12.082;2024-02-21T01:08:32;1.92;;;1.30;;
11171;SDS011;5642;50.830;12.082;2024-02-21T01:10:59;1.77;;;1.30;;
11171;SDS011;5642;50.830;12.082;2024-02-21T01:13:25;2.03;;;1.23;;
11171;SDS011;5642;50.830;12.082;2024-02-21T01:15:52;1.45;;;1.15;;
11171;SDS011;5642;50.830;12.082;2024-02-21T01:18:18;2.75;;;1.40;;
11171;SDS011;5642;50.830;12.082;2024-02-21T01:20:44;1.90;;;1.30;;
11171;SDS011;5642;50.830;12.082;2024-02-21T01:23:11;1.95;;;1.33;;
11171;SDS011;5642;50.830;12.082;2024-02-21T01:25:37;3.53;;;1.52;;
11171;SDS011;5642;50.830;12.082;2024-02-21T01:28:03;1.65;;;1.33;;
11171;SDS011;5642;50.830;12.082;2024-02-21T01:30:29;2.58;;;1.35;;
11171;SDS011;5642;50.830;12.082;2024-02-21T01:32:55;2.22;;;1.40;;
11171;SDS011;5642;50.830;12.082;2024-02-21T01:35:21;3.63;;;1.48;;
11171;SDS011;5642;50.830;12.082;2024-02-21T01:37:47;1.98;;;1.25;;
11171;SDS011;5642;50.830;12.082;2024-02-21T01:40:14;2.03;;;1.42;;
11171;SDS011;5642;50.830;12.082;2024-02-21T01:42:40;1.52;;;1.38;;
11171;SDS011;5642;50.830;12.082;2024-02-21T01:45:06;3.22;;;1.50;;
11171;SDS011;5642;50.830;12.082;2024-02-21T01:47:33;1.65;;;1.20;;
11171;SDS011;5642;50.830;12.082;2024-02-21T01:49:59;2.42;;;1.38;;
11171;SDS011;5642;50.830;12.082;2024-02-21T01:52:28;1.65;;;1.20;;
11171;SDS011;5642;50.830;12.082;2024-02-21T01:54:57;1.52;;;1.40;;
11171;SDS011;5642;50.830;12.082;2024-02-21T01:57:24;4.05;;;1.75;;
11171;SDS011;5642;50.830;12.082;2024-02-21T01:59:50;3.75;;;1.50;;
11171;SDS011;5642;50.830;12.082;2024-02-21T02:02:17;2.03;;;1.52;;
11171;SDS011;5642;50.830;12.082;2024-02-21T02:04:44;2.38;;;1.40;;
11171;SDS011;5642;50.830;12.082;2024-02-21T02:07:11;2.08;;;1.42;;
11171;SDS011;5642;50.830;12.082;2024-02-21T02:09:37;2.65;;;1.35;;
11171;SDS011;5642;50.830;12.082;2024-02-21T02:12:03;2.03;;;1.30;;
11171;SDS011;5642;50.830;12.082;2024-02-21T02:14:29;2.85;;;1.40;;
11171;SDS011;5642;50.830;12.082;2024-02-21T02:16:55;3.70;;;2.05;;
11171;SDS011;5642;50.830;12.082;2024-02-21T02:19:22;2.97;;;1.52;;
11171;SDS011;5642;50.830;12.082;2024-02-21T02:21:50;2.75;;;1.50;;
11171;SDS011;5642;50.830;12.082;2024-02-21T02:24:21;2.22;;;1.40;;
11171;SDS011;5642;50.830;12.082;2024-02-21T02:26:51;1.30;;;1.20;;
11171;SDS011;5642;50.830;12.082;2024-02-21T02:29:18;1.40;;;1.25;;
11171;SDS011;5642;50.830;12.082;2024-02-21T02:31:46;3.13;;;1.48;;
11171;SDS011;5642;50.830;12.082;2024-02-21T02:34:13;1.42;;;1.33;;
11171;SDS011;5642;50.830;12.082;2024-02-21T02:36:40;2.45;;;1.60;;
11171;SDS011;5642;50.830;12.082;2024-02-21T02:39:06;3.03;;;1.45;;
11171;SDS011;5642;50.830;12.082;2024-02-21T02:41:34;2.15;;;1.30;;
11171;SDS011;5642;50.830;12.082;2024-02-21T02:44:01;1.58;;;1.27;;
11171;SDS011;5642;50.830;12.082;2024-02-21T02:46:28;2.58;;;1.50;;
11171;SDS011;5642;50.830;12.082;2024-02-21T02:48:54;1.83;;;1.30;;
11171;SDS011;5642;50.830;12.082;2024-02-21T02:51:20;3.17;;;1.30;;
11171;SDS011;5642;50.830;12.082;2024-02-21T02:53:46;2.42;;;1.48;;
11171;SDS011;5642;50.830;12.082;2024-02-21T02:56:15;2.67;;;1.50;;
11171;SDS011;5642;50.830;12.082;2024-02-21T02:58:43;1.77;;;1.27;;
11171;SDS011;5642;50.830;12.082;2024-02-21T03:01:09;2.92;;;1.50;;
11171;SDS011;5642;50.830;12.082;2024-02-21T03:03:35;1.88;;;1.30;;
11171;SDS011;5642;50.830;12.082;2024-02-21T03:06:02;1.90;;;1.33;;
11171;SDS011;5642;50.830;12.082;2024-02-21T03:08:29;2.38;;;1.40;;
11171;SDS011;5642;50.830;12.082;2024-02-21T03:10:56;1.65;;;1.38;;
11171;SDS011;5642;50.830;12.082;2024-02-21T03:13:25;3.28;;;1.60;;
11171;SDS011;5642;50.830;12.082;2024-02-21T03:15:53;1.48;;;1.33;;
11171;SDS011;5642;50.830;12.082;2024-02-21T03:18:19;2.13;;;1.40;;
11171;SDS011;5642;50.830;12.082;2024-02-21T03:20:46;2.13;;;1.40;;
11171;SDS011;5642;50.830;12.082;2024-02-21T03:23:13;2.00;;;1.50;;
11171;SDS011;5642;50.830;12.082;2024-02-21T03:25:39;2.55;;;1.42;;
11171;SDS011;5642;50.830;12.082;2024-02-21T03:28:07;2.40;;;1.50;;
11171;SDS011;5642;50.830;12.082;2024-02-21T03:30:33;2.15;;;1.40;;
11171;SDS011;5642;50.830;12.082;2024-02-21T03:32:59;2.05;;;1.40;;
11171;SDS011;5642;50.830;12.082;2024-02-21T03:35:27;2.60;;;1.50;;
11171;SDS011;5642;50.830;12.082;2024-02-21T03:37:54;5.90;;;1.48;;
11171;SDS011;5642;50.830;12.082;2024-02-21T03:40:21;2.25;;;1.42;;
11171;SDS011;5642;50.830;12.082;2024-02-21T03:42:48;1.77;;;1.30;;
11171;SDS011;5642;50.830;12.082;2024-02-21T03:45:15;2.30;;;1.23;;
11171;SDS011;5642;50.830;12.082;2024-02-21T03:47:41;1.83;;;1.40;;
11171;SDS011;5642;50.830;12.082;2024-02-21T03:50:08;2.22;;;1.30;;
11171;SDS011;5642;50.830;12.082;2024-02-21T03:52:36;1.40;;;1.30;;
11171;SDS011;5642;50.830;12.082;2024-02-21T03:55:03;2.38;;;1.30;;
11171;SDS011;5642;50.830;12.082;2024-02-21T03:57:30;1.55;;;1.20;;
11171;SDS011;5642;50.830;12.082;2024-02-21T03:59:57;1.83;;;1.25;;
11171;SDS011;5642;50.830;12.082;2024-02-21T04:02:25;2.38;;;1.40;;
11171;SDS011;5642;50.830;12.082;2024-02-21T04:04:51;3.13;;;1.50;;
11171;SDS011;5642;50.830;12.082;2024-02-21T04:07:18;1.90;;;1.35;;
11171;SDS011;5642;50.830;12.082;2024-02-21T04:09:45;2.60;;;1.50;;
11171;SDS011;5642;50.830;12.082;2024-02-21T04:12:12;1.88;;;1.50;;
11171;SDS011;5642;50.830;12.082;2024-02-21T04:14:39;4.15;;;1.55;;
11171;SDS011;5642;50.830;12.082;2024-02-21T04:17:05;3.22;;;1.90;;
11171;SDS011;5642;50.830;12.082;2024-02-21T04:19:33;2.13;;;1.83;;
11171;SDS011;5642;50.830;12.082;2024-02-21T04:22:00;2.90;;;1.95;;
11171;SDS011;5642;50.830;12.082;2024-02-21T04:24:27;2.70;;;1.63;;
11171;SDS011;5642;50.830;12.082;2024-02-21T04:26:54;1.83;;;1.60;;
11171;SDS011;5642;50.830;12.082;2024-02-21T04:29:21;2.15;;;1.50;;
11171;SDS011;5642;50.830;12.082;2024-02-21T04:31:47;1.73;;;1.40;;
11171;SDS011;5642;50.830;12.082;2024-02-21T04:34:15;1.67;;;1.52;;
11171;SDS011;5642;50.830;12.082;2024-02-21T04:36:41;2.88;;;1.58;;
11171;SDS011;5642;50.830;12.082;2024-02-21T04:39:07;2.72;;;1.60;;
11171;SDS011;5642;50.830;12.082;2024-02-21T04:41:33;2.42;;;1.85;;
11171;SDS011;5642;50.830;12.082;2024-02-21T04:43:59;2.92;;;1.90;;
11171;SDS011;5642;50.830;12.082;2024-02-21T04:46:26;3.22;;;1.77;;
11171;SDS011;5642;50.830;12.082;2024-02-21T04:48:53;1.73;;;1.50;;
11171;SDS011;5642;50.830;12.082;2024-02-21T04:51:21;2.63;;;1.73;;
11171;SDS011;5642;50.830;12.082;2024-02-21T04:53:48;2.55;;;1.58;;
11171;SDS011;5642;50.830;12.082;2024-02-21T04:56:14;2.30;;;1.80;;
11171;SDS011;5642;50.830;12.082;2024-02-21T04:58:41;2.63;;;1.73;;
11171;SDS011;5642;50.830;12.082;2024-02-21T05:01:09;1.73;;;1.60;;
11171;SDS011;5642;50.830;12.082;2024-02-21T05:03:38;4.40;;;1.90;;
11171;SDS011;5642;50.830;12.082;2024-02-21T05:06:06;2.05;;;1.67;;
11171;SDS011;5642;50.830;12.082;2024-02-21T05:08:33;2.20;;;1.85;;
11171;SDS011;5642;50.830;12.082;2024-02-21T05:11:00;3.20;;;2.17;;
11171;SDS011;5642;50.830;12.082;2024-02-21T05:13:27;2.88;;;1.85;;
11171;SDS011;5642;50.830;12.082;2024-02-21T05:15:53;2.70;;;1.75;;
11171;SDS011;5642;50.830;12.082;2024-02-21T05:18:21;3.15;;;1.80;;
11171;SDS011;5642;50.830;12.082;2024-02-21T05:20:48;1.75;;;1.63;;
11171;SDS011;5642;50.830;12.082;2024-02-21T05:23:15;3.20;;;1.90;;
11171;SDS011;5642;50.830;12.082;2024-02-21T05:25:42;4.97;;;2.13;;
11171;SDS011;5642;50.830;12.082;2024-02-21T05:28:09;2.95;;;1.60;;
11171;SDS011;5642;50.830;12.082;2024-02-21T05:30:36;2.83;;;2.00;;
11171;SDS011;5642;50.830;12.082;2024-02-21T05:33:05;2.53;;;2.00;;
11171;SDS011;5642;50.830;12.082;2024-02-21T05:35:33;2.97;;;1.65;;
11171;SDS011;5642;50.830;12.082;2024-02-21T05:38:00;2.88;;;1.83;;
11171;SDS011;5642;50.830;12.082;2024-02-21T05:40:27;3.95;;;1.85;;
11171;SDS011;5642;50.830;12.082;2024-02-21T05:42:53;2.28;;;1.80;;
11171;SDS011;5642;50.830;12.082;2024-02-21T05:45:20;3.85;;;2.05;;
11171;SDS011;5642;50.830;12.082;2024-02-21T05:47:47;3.80;;;2.10;;
11171;SDS011;5642;50.830;12.082;2024-02-21T05:50:13;4.00;;;2.45;;
11171;SDS011;5642;50.830;12.082;2024-02-21T05:52:39;2.70;;;1.92;;
11171;SDS011;5642;50.830;12.082;2024-02-21T05:55:06;3.05;;;2.20;;
11171;SDS011;5642;50.830;12.082;2024-02-21T05:57:35;2.60;;;1.80;;
11171;SDS011;5642;50.830;12.082;2024-02-21T06:00:05;2.03;;;1.85;;
11171;SDS011;5642;50.830;12.082;2024-02-21T06:02:33;2.88;;;1.88;;
11171;SDS011;5642;50.830;12.082;2024-02-21T06:04:59;3.35;;;2.17;;
11171;SDS011;5642;50.830;12.082;2024-02-21T06:07:27;3.75;;;1.70;;
11171;SDS011;5642;50.830;12.082;2024-02-21T06:09:54;3.72;;;2.13;;
11171;SDS011;5642;50.830;12.082;2024-02-21T06:12:22;2.35;;;1.90;;
11171;SDS011;5642;50.830;12.082;2024-02-21T06:14:48;2.45;;;1.80;;
11171;SDS011;5642;50.830;12.082;2024-02-21T06:17:16;3.00;;;2.13;;
11171;SDS011;5642;50.830;12.082;2024-02-21T06:19:45;2.55;;;1.70;;
11171;SDS011;5642;50.830;12.082;2024-02-21T06:22:11;2.15;;;1.90;;
11171;SDS011;5642;50.830;12.082;2024-02-21T06:24:37;2.88;;;1.75;;
11171;SDS011;5642;50.830;12.082;2024-02-21T06:27:07;3.42;;;1.92;;
11171;SDS011;5642;50.830;12.082;2024-02-21T06:29:34;2.83;;;2.13;;
11171;SDS011;5642;50.830;12.082;2024-02-21T06:32:03;1.83;;;1.73;;
11171;SDS011;5642;50.830;12.082;2024-02-21T06:34:33;1.95;;;1.60;;
11171;SDS011;5642;50.830;12.082;2024-02-21T06:36:59;1.65;;;1.55;;
11171;SDS011;5642;50.830;12.082;2024-02-21T06:39:29;3.20;;;2.10;;
11171;SDS011;5642;50.830;12.082;2024-02-21T06:41:56;2.47;;;1.85;;
11171;SDS011;5642;50.830;12.082;2024-02-21T06:44:28;2.92;;;1.75;;
11171;SDS011;5642;50.830;12.082;2024-02-21T06:46:56;2.53;;;1.85;;
11171;SDS011;5642;50.830;12.082;2024-02-21T06:49:25;2.13;;;1.80;;
11171;SDS011;5642;50.830;12.082;2024-02-21T06:51:52;2.85;;;2.00;;
11171;SDS011;5642;50.830;12.082;2024-02-21T06:54:18;3.20;;;1.80;;
11171;SDS011;5642;50.830;12.082;2024-02-21T06:56:45;4.60;;;2.10;;
11171;SDS011;5642;50.830;12.082;2024-02-21T06:59:16;2.63;;;1.90;;
11171;SDS011;5642;50.830;12.082;2024-02-21T07:01:48;2.78;;;1.77;;
11171;SDS011;5642;50.830;12.082;2024-02-21T07:04:19;1.75;;;1.65;;
11171;SDS011;5642;50.830;12.082;2024-02-21T07:06:46;3.58;;;1.80;;
11171;SDS011;5642;50.830;12.082;2024-02-21T07:09:12;2.75;;;1.90;;
11171;SDS011;5642;50.830;12.082;2024-02-21T07:11:44;2.40;;;1.77;;
11171;SDS011;5642;50.830;12.082;2024-02-21T07:14:18;2.58;;;1.65;;
11171;SDS011;5642;50.830;12.082;2024-02-21T07:16:47;4.03;;;1.85;;
11171;SDS011;5642;50.830;12.082;2024-02-21T07:19:17;3.05;;;1.77;;
11171;SDS011;5642;50.830;12.082;2024-02-21T07:21:43;1.98;;;1.75;;
11171;SDS011;5642;50.830;12.082;2024-02-21T07:24:10;2.75;;;1.67;;
11171;SDS011;5642;50.830;12.082;2024-02-21T07:26:42;2.63;;;1.50;;
11171;SDS011;5642;50.830;12.082;2024-02-21T07:29:11;1.65;;;1.50;;
11171;SDS011;5642;50.830;12.082;2024-02-21T07:31:42;3.00;;;1.75;;
11171;SDS011;5642;50.830;12.082;2024-02-21T07:34:13;1.85;;;1.42;;
11171;SDS011;5642;50.830;12.082;2024-02-21T07:36:41;1.48;;;1.30;;
11171;SDS011;5642;50.830;12.082;2024-02-21T07:39:08;2.58;;;1.50;;
11171;SDS011;5642;50.830;12.082;2024-02-21T07:41:38;2.75;;;1.50;;
11171;SDS011;5642;50.830;12.082;2024-02-21T07:44:07;2.53;;;1.33;;
11171;SDS011;5642;50.830;12.082;2024-02-21T07:46:33;2.50;;;1.38;;
11171;SDS011;5642;50.830;12.082;2024-02-21T07:49:00;2.20;;;1.45;;
11171;SDS011;5642;50.830;12.082;2024-02-21T07:51:29;1.58;;;1.40;;
11171;SDS011;5642;50.830;12.082;2024-02-21T07:53:55;2.25;;;1.40;;
11171;SDS011;5642;50.830;12.082;2024-02-21T07:56:21;4.53;;;1.52;;
11171;SDS011;5642;50.830;12.082;2024-02-21T07:58:48;1.98;;;1.17;;
11171;SDS011;5642;50.830;12.082;2024-02-21T08:01:22;2.80;;;1.30;;
11171;SDS011;5642;50.830;12.082;2024-02-21T08:03:54;1.98;;;1.40;;
11171;SDS011;5642;50.830;12.082;2024-02-21T08:06:21;2.28;;;1.38;;
11171;SDS011;5642;50.830;12.082;2024-02-21T08:08:48;1.40;;;1.30;;
11171;SDS011;5642;50.830;12.082;2024-02-21T08:11:15;1.40;;;1.30;;
11171;SDS011;5642;50.830;12.082;2024-02-21T08:13:59;3.72;;;1.52;;
11171;SDS011;5642;50.830;12.082;2024-02-21T08:16:26;2.83;;;1.60;;
11171;SDS011;5642;50.830;12.082;2024-02-21T08:18:54;2.33;;;1.15;;
11171;SDS011;5642;50.830;12.082;2024-02-21T08:21:21;1.40;;;1.17;;
11171;SDS011;5642;50.830;12.082;2024-02-21T08:23:48;2.03;;;1.38;;
11171;SDS011;5642;50.830;12.082;2024-02-21T08:26:17;1.65;;;1.38;;
11171;SDS011;5642;50.830;12.082;2024-02-21T08:28:43;2.10;;;1.40;;
11171;SDS011;5642;50.830;12.082;2024-02-21T08:31:10;1.77;;;1.40;;
11171;SDS011;5642;50.830;12.082;2024-02-21T08:33:37;2.45;;;1.20;;
11171;SDS011;5642;50.830;12.082;2024-02-21T08:36:07;1.42;;;1.30;;
11171;SDS011;5642;50.830;12.082;2024-02-21T08:38:39;2.88;;;1.30;;
11171;SDS011;5642;50.830;12.082;2024-02-21T08:41:05;1.85;;;1.10;;
11171;SDS011;5642;50.830;12.082;2024-02-21T08:43:33;1.23;;;1.10;;
11171;SDS011;5642;50.830;12.082;2024-02-21T08:46:04;1.33;;;1.23;;
11171;SDS011;5642;50.830;12.082;2024-02-21T08:48:33;1.40;;;1.30;;
11171;SDS011;5642;50.830;12.082;2024-02-21T08:51:02;1.77;;;1.25;;
11171;SDS011;5642;50.830;12.082;2024-02-21T08:53:38;2.03;;;1.30;;
11171;SDS011;5642;50.830;12.082;2024-02-21T08:56:05;2.03;;;1.30;;
11171;SDS011;5642;50.830;12.082;2024-02-21T08:58:34;2.78;;;1.40;;
11171;SDS011;5642;50.830;12.082;2024-02-21T09:01:02;2.88;;;1.50;;
11171;SDS011;5642;50.830;12.082;2024-02-21T09:03:38;2.40;;;1.60;;
11171;SDS011;5642;50.830;12.082;2024-02-21T09:06:06;1.50;;;1.38;;
11171;SDS011;5642;50.830;12.082;2024-02-21T09:08:33;1.67;;;1.45;;
11171;SDS011;5642;50.830;12.082;2024-02-21T09:11:00;1.40;;;1.27;;
11171;SDS011;5642;50.830;12.082;2024-02-21T09:13:30;2.40;;;1.60;;
11171;SDS011;5642;50.830;12.082;2024-02-21T09:15:56;2.33;;;1.30;;
11171;SDS011;5642;50.830;12.082;2024-02-21T09:18:22;1.42;;;1.33;;
11171;SDS011;5642;50.830;12.082;2024-02-21T09:20:51;2.45;;;1.67;;
11171;SDS011;5642;50.830;12.082;2024-02-21T09:23:24;1.95;;;1.40;;
11171;SDS011;5642;50.830;12.082;2024-02-21T09:25:52;2.35;;;1.45;;
11171;SDS011;5642;50.830;12.082;2024-02-21T09:28:18;2.70;;;1.55;;
11171;SDS011;5642;50.830;12.082;2024-02-21T09:30:45;1.40;;;1.30;;
11171;SDS011;5642;50.830;12.082;2024-02-21T09:33:13;1.85;;;1.38;;
11171;SDS011;5642;50.830;12.082;2024-02-21T09:35:41;1.38;;;1.27;;
11171;SDS011;5642;50.830;12.082;2024-02-21T09:38:13;2.45;;;1.27;;
11171;SDS011;5642;50.830;12.082;2024-02-21T09:40:39;1.45;;;1.20;;
11171;SDS011;5642;50.830;12.082;2024-02-21T09:43:10;3.22;;;1.35;;
11171;SDS011;5642;50.830;12.082;2024-02-21T09:45:37;1.58;;;1.30;;
11171;SDS011;5642;50.830;12.082;2024-02-21T09:50:49;1.30;;;1.20;;
11171;SDS011;5642;50.830;12.082;2024-02-21T09:53:19;2.45;;;1.30;;
11171;SDS011;5642;50.830;12.082;2024-02-21T09:55:46;1.67;;;1.33;;
11171;SDS011;5642;50.830;12.082;2024-02-21T09:58:15;1.38;;;1.27;;
11171;SDS011;5642;50.830;12.082;2024-02-21T10:00:42;1.90;;;1.30;;
11171;SDS011;5642;50.830;12.082;2024-02-21T10:03:11;1.33;;;1.15;;
11171;SDS011;5642;50.830;12.082;2024-02-21T10:05:45;1.67;;;1.30;;
11171;SDS011;5642;50.830;12.082;2024-02-21T10:08:14;1.27;;;1.17;;
11171;SDS011;5642;50.830;12.082;2024-02-21T10:10:44;1.40;;;1.30;;
11171;SDS011;5642;50.830;12.082;2024-02-21T10:13:33;2.05;;;1.20;;
11171;SDS011;5642;50.830;12.082;2024-02-21T10:18:29;1.30;;;1.02;;
11171;SDS011;5642;50.830;12.082;2024-02-21T10:21:00;1.02;;;0.90;;
11171;SDS011;5642;50.830;12.082;2024-02-21T10:26:10;0.60;;;0.60;;
11171;SDS011;5642;50.830;12.082;2024-02-21T10:28:37;0.93;;;0.80;;
11171;SDS011;5642;50.830;12.082;2024-02-21T10:31:10;0.90;;;0.90;;
11171;SDS011;5642;50.830;12.082;2024-02-21T10:33:37;0.73;;;0.73;;
11171;SDS011;5642;50.830;12.082;2024-02-21T10:36:07;0.88;;;0.85;;
11171;SDS011;5642;50.830;12.082;2024-02-21T10:38:35;0.80;;;0.80;;
11171;SDS011;5642;50.830;12.082;2024-02-21T10:41:08;0.80;;;0.80;;
11171;SDS011;5642;50.830;12.082;2024-02-21T10:43:53;0.93;;;0.93;;
11171;SDS011;5642;50.830;12.082;2024-02-21T10:46:25;0.80;;;0.70;;
11171;SDS011;5642;50.830;12.082;2024-02-21T10:49:02;0.88;;;0.70;;
11171;SDS011;5642;50.830;12.082;2024-02-21T10:51:36;1.42;;;0.80;;
11171;SDS011;5642;50.830;12.082;2024-02-21T10:56:59;0.70;;;0.70;;
11171;SDS011;5642;50.830;12.082;2024-02-21T10:59:28;0.95;;;0.80;;
11171;SDS011;5642;50.830;12.082;2024-02-21T11:01:55;0.75;;;0.75;;
11171;SDS011;5642;50.830;12.082;2024-02-21T11:04:22;0.77;;;0.77;;
11171;SDS011;5642;50.830;12.082;2024-02-21T11:06:50;0.88;;;0.60;;
11171;SDS011;5642;50.830;12.082;2024-02-21T11:09:17;0.80;;;0.80;;
11171;SDS011;5642;50.830;12.082;2024-02-21T11:11:44;1.45;;;0.90;;
11171;SDS011;5642;50.830;12.082;2024-02-21T11:14:11;0.85;;;0.85;;
11171;SDS011;5642;50.830;12.082;2024-02-21T11:16:45;0.88;;;0.85;;
11171;SDS011;5642;50.830;12.082;2024-02-21T11:19:19;0.93;;;0.82;;
11171;SDS011;5642;50.830;12.082;2024-02-21T11:21:51;0.93;;;0.77;;
11171;SDS011;5642;50.830;12.082;2024-02-21T11:24:28;0.60;;;0.60;;
11171;SDS011;5642;50.830;12.082;2024-02-21T11:27:08;1.38;;;0.90;;
11171;SDS011;5642;50.830;12.082;2024-02-21T11:29:40;1.13;;;0.90;;
11171;SDS011;5642;50.830;12.082;2024-02-21T11:32:14;0.80;;;0.55;;
11171;SDS011;5642;50.830;12.082;2024-02-21T11:34:41;0.70;;;0.70;;
11171;SDS011;5642;50.830;12.082;2024-02-21T11:37:18;0.70;;;0.70;;
11171;SDS011;5642;50.830;12.082;2024-02-21T11:39:46;1.65;;;0.90;;
11171;SDS011;5642;50.830;12.082;2024-02-21T11:42:14;1.05;;;0.90;;
11171;SDS011;5642;50.830;12.082;2024-02-21T11:44:41;1.60;;;0.90;;
11171;SDS011;5642;50.830;12.082;2024-02-21T11:47:09;1.02;;;0.80;;
11171;SDS011;5642;50.830;12.082;2024-02-21T11:49:44;1.90;;;0.95;;
11171;SDS011;5642;50.830;12.082;2024-02-21T11:52:12;1.00;;;0.80;;
11171;SDS011;5642;50.830;12.082;2024-02-21T11:54:44;1.00;;;0.68;;
11171;SDS011;5642;50.830;12.082;2024-02-21T11:57:13;0.77;;;0.77;;
11171;SDS011;5642;50.830;12.082;2024-02-21T11:59:40;1.58;;;1.00;;
11171;SDS011;5642;50.830;12.082;2024-02-21T12:02:14;0.77;;;0.77;;
11171;SDS011;5642;50.830;12.082;2024-02-21T12:04:44;2.35;;;1.00;;
11171;SDS011;5642;50.830;12.082;2024-02-21T12:07:12;1.67;;;1.10;;
11171;SDS011;5642;50.830;12.082;2024-02-21T12:09:41;2.72;;;1.20;;
11171;SDS011;5642;50.830;12.082;2024-02-21T12:12:08;1.63;;;0.93;;
11171;SDS011;5642;50.830;12.082;2024-02-21T12:14:37;0.98;;;0.90;;
11171;SDS011;5642;50.830;12.082;2024-02-21T12:17:04;0.90;;;0.90;;
11171;SDS011;5642;50.830;12.082;2024-02-21T12:19:30;1.23;;;1.08;;
11171;SDS011;5642;50.830;12.082;2024-02-21T12:22:01;1.48;;;1.08;;
11171;SDS011;5642;50.830;12.082;2024-02-21T12:24:31;1.10;;;0.80;;
11171;SDS011;5642;50.830;12.082;2024-02-21T12:26:58;1.75;;;1.02;;
11171;SDS011;5642;50.830;12.082;2024-02-21T12:29:27;1.10;;;1.00;;
11171;SDS011;5642;50.830;12.082;2024-02-21T12:31:56;1.67;;;1.13;;
11171;SDS011;5642;50.830;12.082;2024-02-21T12:34:26;1.50;;;1.00;;
11171;SDS011;5642;50.830;12.082;2024-02-21T12:36:52;2.08;;;1.17;;
11171;SDS011;5642;50.830;12.082;2024-02-21T12:39:19;1.15;;;1.00;;
11171;SDS011;5642;50.830;12.082;2024-02-21T12:41:45;1.23;;;1.00;;
11171;SDS011;5642;50.830;12.082;2024-02-21T12:44:13;1.02;;;0.93;;
11171;SDS011;5642;50.830;12.082;2024-02-21T12:46:40;1.20;;;1.10;;
11171;SDS011;5642;50.830;12.082;2024-02-21T12:49:06;1.20;;;1.10;;
11171;SDS011;5642;50.830;12.082;2024-02-21T12:52:00;2.05;;;1.00;;
11171;SDS011;5642;50.830;12.082;2024-02-21T12:54:27;1.85;;;1.15;;
11171;SDS011;5642;50.830;12.082;2024-02-21T12:57:05;2.80;;;1.00;;
11171;SDS011;5642;50.830;12.082;2024-02-21T12:59:32;1.15;;;1.02;;
11171;SDS011;5642;50.830;12.082;2024-02-21T13:01:58;2.00;;;1.45;;
11171;SDS011;5642;50.830;12.082;2024-02-21T13:04:27;1.20;;;1.10;;
11171;SDS011;5642;50.830;12.082;2024-02-21T13:06:54;2.10;;;1.40;;
11171;SDS011;5642;50.830;12.082;2024-02-21T13:09:21;2.00;;;1.25;;
11171;SDS011;5642;50.830;12.082;2024-02-21T13:11:47;1.20;;;1.05;;
11171;SDS011;5642;50.830;12.082;2024-02-21T13:14:15;2.70;;;1.05;;
11171;SDS011;5642;50.830;12.082;2024-02-21T13:16:41;1.27;;;1.00;;
11171;SDS011;5642;50.830;12.082;2024-02-21T13:19:08;1.25;;;1.02;;
11171;SDS011;5642;50.830;12.082;2024-02-21T13:21:35;2.03;;;1.00;;
11171;SDS011;5642;50.830;12.082;2024-02-21T13:34:45;1.70;;;1.23;;
11171;SDS011;5642;50.830;12.082;2024-02-21T13:37:14;1.67;;;1.20;;
11171;SDS011;5642;50.830;12.082;2024-02-21T13:39:40;0.98;;;0.88;;
11171;SDS011;5642;50.830;12.082;2024-02-21T13:42:06;1.95;;;1.20;;
11171;SDS011;5642;50.830;12.082;2024-02-21T13:44:32;1.60;;;1.10;;
11171;SDS011;5642;50.830;12.082;2024-02-21T13:47:00;1.30;;;1.00;;
11171;SDS011;5642;50.830;12.082;2024-02-21T13:49:26;0.70;;;0.70;;
11171;SDS011;5642;50.830;12.082;2024-02-21T13:51:55;0.88;;;0.82;;
11171;SDS011;5642;50.830;12.082;2024-02-21T13:54:22;2.15;;;1.00;;
11171;SDS011;5642;50.830;12.082;2024-02-21T13:56:48;1.10;;;0.90;;
11171;SDS011;5642;50.830;12.082;2024-02-21T13:59:15;1.38;;;1.05;;
11171;SDS011;5642;50.830;12.082;2024-02-21T14:01:41;1.67;;;1.00;;
11171;SDS011;5642;50.830;12.082;2024-02-21T14:04:11;0.70;;;0.70;;
11171;SDS011;5642;50.830;12.082;2024-02-21T14:06:47;1.33;;;0.95;;
11171;SDS011;5642;50.830;12.082;2024-02-21T14:09:14;0.98;;;0.88;;
11171;SDS011;5642;50.830;12.082;2024-02-21T14:11:40;2.28;;;0.90;;
11171;SDS011;5642;50.830;12.082;2024-02-21T14:14:07;1.30;;;0.90;;
11171;SDS011;5642;50.830;12.082;2024-02-21T14:16:34;1.38;;;1.00;;
11171;SDS011;5642;50.830;12.082;2024-02-21T14:19:00;2.10;;;1.00;;
11171;SDS011;5642;50.830;12.082;2024-02-21T14:21:26;0.80;;;0.80;;
11171;SDS011;5642;50.830;12.082;2024-02-21T14:23:56;1.77;;;0.98;;
11171;SDS011;5642;50.830;12.082;2024-02-21T14:26:22;0.90;;;0.90;;
11171;SDS011;5642;50.830;12.082;2024-02-21T14:28:48;1.58;;;1.10;;
11171;SDS011;5642;50.830;12.082;2024-02-21T14:31:15;1.60;;;1.00;;
11171;SDS011;5642;50.830;12.082;2024-02-21T14:33:42;1.10;;;0.98;;
11171;SDS011;5642;50.830;12.082;2024-02-21T14:36:08;1.70;;;1.08;;
11171;SDS011;5642;50.830;12.082;2024-02-21T14:38:39;1.98;;;1.00;;
11171;SDS011;5642;50.830;12.082;2024-02-21T14:41:06;2.40;;;0.80;;
11171;SDS011;5642;50.830;12.082;2024-02-21T14:43:32;1.55;;;0.90;;
11171;SDS011;5642;50.830;12.082;2024-02-21T14:46:00;1.75;;;0.88;;
11171;SDS011;5642;50.830;12.082;2024-02-21T14:48:30;1.13;;;0.82;;
11171;SDS011;5642;50.830;12.082;2024-02-21T14:50:57;1.83;;;1.13;;
11171;SDS011;5642;50.830;12.082;2024-02-21T14:53:24;1.25;;;0.90;;
11171;SDS011;5642;50.830;12.082;2024-02-21T14:55:51;1.02;;;0.93;;
11171;SDS011;5642;50.830;12.082;2024-02-21T14:58:17;2.10;;;1.00;;
11171;SDS011;5642;50.830;12.082;2024-02-21T15:00:48;1.33;;;0.90;;
11171;SDS011;5642;50.830;12.082;2024-02-21T15:03:15;2.17;;;1.10;;
11171;SDS011;5642;50.830;12.082;2024-02-21T15:05:45;1.48;;;1.02;;
11171;SDS011;5642;50.830;12.082;2024-02-21T15:08:11;0.95;;;0.80;;
11171;SDS011;5642;50.830;12.082;2024-02-21T15:10:42;1.38;;;1.10;;
11171;SDS011;5642;50.830;12.082;2024-02-21T15:13:09;0.80;;;0.80;;